Time;durP1;ratioP1;P1;durP2;ratioP2;P2;SDS_P1;SDS_P2;PMS_P1;PMS_P2;Temp;Humidity;BMP_temperature;BMP_pressure;BME280_temperature;BME280_humidity;BME280_pressure;Samples;Min_cycle;Max_cycle;Signal;HPM_P1;HPM_P2
2022/04/16 00:01:53;;;;;;;;;;;7.60;83.80;;;;;;5096724;22;19972;-88
2022/04/16 00:04:19;;;;;;;;;;;7.60;83.50;;;;;;5046653;28;20363;-88
2022/04/16 00:06:47;;;;;;;;;;;7.60;83.40;;;;;;5044671;28;19912;-88
2022/04/16 00:09:15;;;;;;;;;;;7.50;83.60;;;;;;5052613;28;20352;-88
2022/04/16 00:11:40;;;;;;;;;;;7.50;83.40;;;;;;5047894;28;19920;-88
2022/04/16 00:14:06;;;;;;;;;;;7.40;83.70;;;;;;5042983;28;19924;-87
2022/04/16 00:16:32;;;;;;;;;;;7.40;83.50;;;;;;5041565;28;20135;-87
2022/04/16 00:18:57;;;;;;;;;;;7.30;84.10;;;;;;5041809;28;20008;-87
2022/04/16 00:21:23;;;;;;;;;;;7.30;83.60;;;;;;5053119;28;19909;-87
2022/04/16 00:23:49;;;;;;;;;;;7.20;84.00;;;;;;5042918;28;20158;-88
2022/04/16 00:26:15;;;;;;;;;;;7.20;84.10;;;;;;5042594;28;20001;-87
2022/04/16 00:28:40;;;;;;;;;;;7.20;84.40;;;;;;5068043;28;19939;-88
2022/04/16 00:31:05;;;;;;;;;;;7.10;84.50;;;;;;5043587;28;19917;-87
2022/04/16 00:33:33;;;;;;;;;;;7.10;84.60;;;;;;5068442;28;20120;-88
2022/04/16 00:36:02;;;;;;;;;;;7.20;84.60;;;;;;5048575;28;19996;-87
2022/04/16 00:38:28;;;;;;;;;;;7.10;85.10;;;;;;5051964;28;19966;-88
2022/04/16 00:40:53;;;;;;;;;;;7.20;84.90;;;;;;5058051;28;19909;-87
2022/04/16 00:43:28;;;;;;;;;;;7.10;85.10;;;;;;5047289;28;19932;-87
2022/04/16 00:45:55;;;;;;;;;;;7.10;85.40;;;;;;5053323;28;19912;-88
2022/04/16 00:48:21;;;;;;;;;;;7.20;85.70;;;;;;5051148;28;19917;-87
2022/04/16 00:50:50;;;;;;;;;;;7.10;85.40;;;;;;5049625;28;19913;-87
2022/04/16 00:53:16;;;;;;;;;;;7.20;85.70;;;;;;5037132;28;19913;-88
2022/04/16 00:55:44;;;;;;;;;;;7.30;85.40;;;;;;5054419;28;19913;-87
2022/04/16 00:58:10;;;;;;;;;;;7.30;85.40;;;;;;5041206;28;19936;-87
2022/04/16 01:00:36;;;;;;;;;;;7.20;85.50;;;;;;5053362;28;19927;-88
2022/04/16 01:03:02;;;;;;;;;;;7.20;85.70;;;;;;5043171;28;19912;-87
2022/04/16 01:05:27;;;;;;;;;;;7.20;85.60;;;;;;5049284;28;19916;-87
2022/04/16 01:07:53;;;;;;;;;;;7.30;85.30;;;;;;5051818;28;20387;-87
2022/04/16 01:10:26;;;;;;;;;;;7.40;85.50;;;;;;5047743;28;19909;-88
2022/04/16 01:12:52;;;;;;;;;;;7.50;85.30;;;;;;5041706;28;19919;-88
2022/04/16 01:15:20;;;;;;;;;;;7.50;85.00;;;;;;5038954;28;19924;-87
2022/04/16 01:17:49;;;;;;;;;;;7.50;84.30;;;;;;5047669;28;19990;-87
2022/04/16 01:20:16;;;;;;;;;;;7.60;84.40;;;;;;5036369;28;20008;-87
2022/04/16 01:22:42;;;;;;;;;;;7.30;84.60;;;;;;5044192;28;19910;-87
2022/04/16 01:25:08;;;;;;;;;;;7.30;84.80;;;;;;5043701;28;20240;-88
2022/04/16 01:27:39;;;;;;;;;;;7.30;85.00;;;;;;5047748;28;20956;-87
2022/04/16 01:30:05;;;;;;;;;;;7.30;85.10;;;;;;5047351;28;19943;-87
2022/04/16 01:32:32;;;;;;;;;;;7.10;85.30;;;;;;5034931;28;20308;-87
2022/04/16 01:34:58;;;;;;;;;;;7.20;85.60;;;;;;5049315;28;19920;-87
2022/04/16 01:37:24;;;;;;;;;;;7.10;85.80;;;;;;5044110;28;19916;-87
2022/04/16 01:39:49;;;;;;;;;;;7.10;85.80;;;;;;5041313;28;19917;-88
2022/04/16 01:42:15;;;;;;;;;;;7.10;86.00;;;;;;5050823;28;19931;-88
2022/04/16 01:44:43;;;;;;;;;;;7.10;86.10;;;;;;5053388;28;19919;-88
2022/04/16 01:47:10;;;;;;;;;;;7.10;85.70;;;;;;5062942;28;19923;-88
2022/04/16 01:49:36;;;;;;;;;;;7.10;85.90;;;;;;5047758;28;19916;-87
2022/04/16 01:52:02;;;;;;;;;;;7.10;85.90;;;;;;5041416;28;19921;-87
2022/04/16 01:54:27;;;;;;;;;;;7.10;86.00;;;;;;5049717;28;19920;-88
2022/04/16 01:56:53;;;;;;;;;;;7.10;85.90;;;;;;5042501;28;19920;-87
2022/04/16 01:59:18;;;;;;;;;;;7.10;86.10;;;;;;5050498;28;19913;-87
2022/04/16 02:01:45;;;;;;;;;;;7.20;85.80;;;;;;5058915;28;19963;-87
2022/04/16 02:04:10;;;;;;;;;;;7.10;85.50;;;;;;5044410;28;20449;-87
2022/04/16 02:06:36;;;;;;;;;;;7.00;85.90;;;;;;5057755;28;19913;-89
2022/04/16 02:09:02;;;;;;;;;;;7.00;85.90;;;;;;5062333;28;19912;-88
2022/04/16 02:11:28;;;;;;;;;;;7.00;86.30;;;;;;5033741;28;19939;-87
2022/04/16 02:13:54;;;;;;;;;;;7.00;86.20;;;;;;5033225;28;20029;-88
2022/04/16 02:16:19;;;;;;;;;;;7.00;86.50;;;;;;5042990;28;20317;-87
2022/04/16 02:18:45;;;;;;;;;;;7.00;86.30;;;;;;5045914;28;19912;-88
2022/04/16 02:21:10;;;;;;;;;;;6.90;86.30;;;;;;5042351;28;19913;-87
2022/04/16 02:23:36;;;;;;;;;;;7.00;86.40;;;;;;5050588;28;19912;-88
2022/04/16 02:26:07;;;;;;;;;;;7.10;86.40;;;;;;5049870;28;19916;-87
2022/04/16 02:28:33;;;;;;;;;;;7.10;86.40;;;;;;5050658;28;20323;-88
2022/04/16 02:30:59;;;;;;;;;;;7.10;86.20;;;;;;5058821;28;19913;-88
2022/04/16 02:33:24;;;;;;;;;;;7.30;85.90;;;;;;5070463;28;19920;-89
2022/04/16 02:35:51;;;;;;;;;;;7.40;85.50;;;;;;5060119;28;19978;-89
2022/04/16 02:38:17;;;;;;;;;;;7.30;85.40;;;;;;5056846;28;19956;-87
2022/04/16 02:40:42;;;;;;;;;;;7.30;85.60;;;;;;5060572;28;19939;-87
2022/04/16 02:43:07;;;;;;;;;;;7.40;85.00;;;;;;5054720;28;20276;-88
2022/04/16 02:48:18;;;;;;;;;;;7.40;85.20;;;;;;5055222;28;19962;-87
2022/04/16 02:50:44;;;;;;;;;;;7.20;85.40;;;;;;5050018;28;19913;-88
2022/04/16 02:53:21;;;;;;;;;;;7.30;85.30;;;;;;5045562;28;19916;-88
2022/04/16 02:55:47;;;;;;;;;;;7.30;85.40;;;;;;5048059;28;19917;-88
2022/04/16 02:58:12;;;;;;;;;;;7.30;85.20;;;;;;5032800;28;19974;-87
2022/04/16 03:00:38;;;;;;;;;;;7.30;85.70;;;;;;5034958;28;20016;-87
2022/04/16 03:03:04;;;;;;;;;;;7.30;85.70;;;;;;5056685;28;19917;-88
2022/04/16 03:05:30;;;;;;;;;;;7.20;85.70;;;;;;5052097;28;19916;-87
2022/04/16 03:07:55;;;;;;;;;;;7.20;85.80;;;;;;5050884;28;19912;-87
2022/04/16 03:10:20;;;;;;;;;;;7.20;85.30;;;;;;5050954;28;20322;-87
2022/04/16 03:12:47;;;;;;;;;;;7.10;85.60;;;;;;5049878;28;19912;-87
2022/04/16 03:17:58;;;;;;;;;;;7.00;86.10;;;;;;5052810;28;20017;-88
2022/04/16 03:20:23;;;;;;;;;;;6.90;86.20;;;;;;5052912;28;19920;-88
2022/04/16 03:22:49;;;;;;;;;;;6.90;86.30;;;;;;5042728;28;19913;-88
2022/04/16 03:25:14;;;;;;;;;;;6.90;86.30;;;;;;5036369;28;19917;-88
2022/04/16 03:27:40;;;;;;;;;;;6.90;86.80;;;;;;5060912;28;20003;-87
2022/04/16 03:30:06;;;;;;;;;;;7.00;86.90;;;;;;5053669;28;19917;-87
2022/04/16 03:32:32;;;;;;;;;;;7.10;86.70;;;;;;5051692;28;19917;-87
2022/04/16 03:34:57;;;;;;;;;;;7.10;86.80;;;;;;5054986;28;19959;-87
2022/04/16 03:37:27;;;;;;;;;;;7.30;86.60;;;;;;5034372;28;19978;-87
2022/04/16 03:39:52;;;;;;;;;;;7.30;86.30;;;;;;5051275;28;20398;-87
2022/04/16 03:42:19;;;;;;;;;;;7.20;86.10;;;;;;5046679;28;19913;-88
2022/04/16 03:44:44;;;;;;;;;;;7.20;86.00;;;;;;5051566;28;19912;-87
2022/04/16 03:47:11;;;;;;;;;;;7.30;85.90;;;;;;5057268;28;19923;-88
2022/04/16 03:49:39;;;;;;;;;;;7.30;85.10;;;;;;5048901;28;20005;-87
2022/04/16 03:52:05;;;;;;;;;;;7.10;85.30;;;;;;5050051;28;19916;-87
2022/04/16 04:00:03;;;;;;;;;;;6.90;86.00;;;;;;5063365;28;19920;-87
2022/04/16 04:02:30;;;;;;;;;;;6.90;86.30;;;;;;5065086;28;20395;-87
2022/04/16 04:04:56;;;;;;;;;;;6.80;86.60;;;;;;5044601;28;20299;-86
2022/04/16 04:07:21;;;;;;;;;;;6.90;86.80;;;;;;5067285;28;19919;-86
2022/04/16 04:09:47;;;;;;;;;;;6.80;86.70;;;;;;5044079;28;19916;-86
2022/04/16 04:12:13;;;;;;;;;;;6.70;86.80;;;;;;5053234;28;20286;-87
2022/04/16 04:14:39;;;;;;;;;;;6.70;87.10;;;;;;5051061;28;19913;-86
2022/04/16 04:17:07;;;;;;;;;;;6.70;86.80;;;;;;5057970;28;20287;-86
2022/04/16 04:19:36;;;;;;;;;;;6.70;87.10;;;;;;5059713;28;19913;-87
2022/04/16 04:22:05;;;;;;;;;;;6.70;87.20;;;;;;5042389;28;19915;-86
2022/04/16 04:24:31;;;;;;;;;;;6.80;87.10;;;;;;5045401;28;19924;-86
2022/04/16 04:26:57;;;;;;;;;;;6.70;87.40;;;;;;5052134;28;19912;-87
2022/04/16 04:29:24;;;;;;;;;;;6.80;87.40;;;;;;5038320;28;19913;-87
2022/04/16 04:31:50;;;;;;;;;;;6.90;87.30;;;;;;5058595;28;19917;-86
2022/04/16 04:34:15;;;;;;;;;;;7.00;87.30;;;;;;5051548;28;19913;-87
2022/04/16 04:36:41;;;;;;;;;;;7.00;87.40;;;;;;5045473;28;19917;-87
2022/04/16 04:39:06;;;;;;;;;;;7.00;87.00;;;;;;5036886;28;20032;-88
2022/04/16 04:41:32;;;;;;;;;;;7.10;87.00;;;;;;5043731;28;19917;-87
2022/04/16 04:43:57;;;;;;;;;;;7.10;86.80;;;;;;5052620;28;19955;-87
2022/04/16 04:46:23;;;;;;;;;;;7.10;86.80;;;;;;5052120;28;19929;-87
2022/04/16 04:48:48;;;;;;;;;;;7.10;86.70;;;;;;5054735;28;19909;-87
2022/04/16 04:51:14;;;;;;;;;;;7.00;86.80;;;;;;5041307;28;19917;-87
2022/04/16 04:53:39;;;;;;;;;;;7.00;87.00;;;;;;5043973;28;20016;-87
2022/04/16 04:56:05;;;;;;;;;;;6.90;87.10;;;;;;5039214;28;19917;-88
2022/04/16 04:58:30;;;;;;;;;;;6.80;87.20;;;;;;5034956;28;19964;-87
2022/04/16 05:00:57;;;;;;;;;;;6.80;87.20;;;;;;5053935;28;19916;-87
2022/04/16 05:03:23;;;;;;;;;;;6.80;87.30;;;;;;5072011;28;19920;-87
2022/04/16 05:05:48;;;;;;;;;;;6.80;87.20;;;;;;5062587;28;19909;-87
2022/04/16 05:08:14;;;;;;;;;;;6.90;87.50;;;;;;5050813;28;20370;-87
2022/04/16 05:10:39;;;;;;;;;;;7.00;87.20;;;;;;5045657;28;19966;-87
2022/04/16 05:13:04;;;;;;;;;;;6.90;87.20;;;;;;5054010;28;19909;-87
2022/04/16 05:15:30;;;;;;;;;;;6.90;87.40;;;;;;5053512;28;19917;-87
2022/04/16 05:17:55;;;;;;;;;;;6.80;87.60;;;;;;5043921;28;19987;-88
2022/04/16 05:20:21;;;;;;;;;;;6.90;87.70;;;;;;5086372;28;20375;-87
2022/04/16 05:22:47;;;;;;;;;;;7.00;87.50;;;;;;5060182;28;20126;-87
2022/04/16 05:25:12;;;;;;;;;;;7.10;87.60;;;;;;5051750;28;19909;-88
2022/04/16 05:27:38;;;;;;;;;;;7.10;87.30;;;;;;5040841;28;19928;-87
2022/04/16 05:30:06;;;;;;;;;;;7.10;87.10;;;;;;5056038;28;19932;-87
2022/04/16 05:32:36;;;;;;;;;;;7.30;87.30;;;;;;5050679;28;19913;-88
2022/04/16 05:35:02;;;;;;;;;;;7.50;86.80;;;;;;5044913;28;19909;-86
2022/04/16 05:37:27;;;;;;;;;;;7.60;86.50;;;;;;5061917;28;19917;-87
2022/04/16 05:39:53;;;;;;;;;;;7.70;86.30;;;;;;5044462;28;19919;-87
2022/04/16 05:42:18;;;;;;;;;;;7.80;85.90;;;;;;5065521;28;19919;-87
2022/04/16 05:44:44;;;;;;;;;;;7.60;85.80;;;;;;5056180;28;19989;-87
2022/04/16 05:47:09;;;;;;;;;;;7.60;86.10;;;;;;5048461;28;19996;-87
2022/04/16 05:49:35;;;;;;;;;;;7.60;86.20;;;;;;5045215;28;19962;-88
2022/04/16 05:52:00;;;;;;;;;;;7.60;86.40;;;;;;5042822;28;19913;-86
2022/04/16 05:54:26;;;;;;;;;;;7.60;86.10;;;;;;5061133;28;19919;-88
2022/04/16 05:56:52;;;;;;;;;;;7.60;86.10;;;;;;5058311;28;19970;-89
2022/04/16 05:59:18;;;;;;;;;;;7.70;86.00;;;;;;5066445;28;19898;-88
2022/04/16 06:01:43;;;;;;;;;;;7.60;86.00;;;;;;5082459;22;19923;-79
2022/04/16 06:04:09;;;;;;;;;;;7.60;86.00;;;;;;5045439;28;19921;-78
2022/04/16 06:06:34;;;;;;;;;;;7.70;85.90;;;;;;5066128;28;19948;-79
2022/04/16 06:09:00;;;;;;;;;;;7.60;86.10;;;;;;5055285;28;19916;-78
2022/04/16 06:11:28;;;;;;;;;;;7.60;86.20;;;;;;5044958;28;19913;-78
2022/04/16 06:13:53;;;;;;;;;;;7.60;86.60;;;;;;5049116;28;19964;-78
2022/04/16 06:16:19;;;;;;;;;;;7.60;86.80;;;;;;5051259;28;20295;-78
2022/04/16 06:18:44;;;;;;;;;;;7.60;86.60;;;;;;5054943;28;19924;-78
2022/04/16 06:21:10;;;;;;;;;;;7.60;87.00;;;;;;5053823;28;19913;-79
2022/04/16 06:23:35;;;;;;;;;;;7.60;87.40;;;;;;5064663;28;19940;-79
2022/04/16 06:26:00;;;;;;;;;;;7.50;87.90;;;;;;5048696;28;19921;-79
2022/04/16 06:28:26;;;;;;;;;;;7.50;87.70;;;;;;5051499;28;19916;-78
2022/04/16 06:30:51;;;;;;;;;;;7.50;87.90;;;;;;5054288;28;19913;-78
2022/04/16 06:33:17;;;;;;;;;;;7.60;88.10;;;;;;5057190;28;20378;-79
2022/04/16 06:35:42;;;;;;;;;;;7.60;88.00;;;;;;5047216;28;20259;-79
2022/04/16 06:38:07;;;;;;;;;;;7.60;88.10;;;;;;5052640;28;20405;-78
2022/04/16 06:40:33;;;;;;;;;;;7.60;87.70;;;;;;5049407;28;19917;-79
2022/04/16 06:42:58;;;;;;;;;;;7.60;87.80;;;;;;5056195;28;20205;-78
2022/04/16 06:45:24;;;;;;;;;;;7.70;87.70;;;;;;5068343;28;20018;-79
2022/04/16 06:47:49;;;;;;;;;;;7.70;87.50;;;;;;5056824;28;19928;-80
2022/04/16 06:50:15;;;;;;;;;;;7.80;87.60;;;;;;5047181;28;20050;-78
2022/04/16 06:52:40;;;;;;;;;;;7.90;87.40;;;;;;5044849;28;19920;-79
2022/04/16 06:55:06;;;;;;;;;;;8.00;87.20;;;;;;5047142;28;19979;-79
2022/04/16 06:57:32;;;;;;;;;;;8.10;86.60;;;;;;5050402;28;20063;-79
2022/04/16 06:59:57;;;;;;;;;;;8.10;85.80;;;;;;5050103;28;19917;-79
2022/04/16 07:02:23;;;;;;;;;;;8.10;85.40;;;;;;5049936;28;19963;-80
2022/04/16 07:04:48;;;;;;;;;;;8.40;85.30;;;;;;5040098;28;20391;-79
2022/04/16 07:07:14;;;;;;;;;;;8.40;84.60;;;;;;5042823;28;20284;-77
2022/04/16 07:09:39;;;;;;;;;;;8.40;84.20;;;;;;5050427;28;20000;-80
2022/04/16 07:12:06;;;;;;;;;;;8.40;83.80;;;;;;5052187;28;19940;-82
2022/04/16 07:14:32;;;;;;;;;;;8.60;83.40;;;;;;5051211;28;19999;-82
2022/04/16 07:16:57;;;;;;;;;;;8.70;84.20;;;;;;5046358;28;19953;-82
2022/04/16 07:19:23;;;;;;;;;;;8.90;82.40;;;;;;5044348;28;19945;-81
2022/04/16 07:21:48;;;;;;;;;;;8.80;82.20;;;;;;5056859;28;19912;-81
2022/04/16 07:24:13;;;;;;;;;;;8.80;83.40;;;;;;5053973;28;19944;-82
2022/04/16 07:26:39;;;;;;;;;;;8.80;83.30;;;;;;5051788;28;19917;-82
2022/04/16 07:29:04;;;;;;;;;;;8.90;82.50;;;;;;5050548;28;20000;-82
2022/04/16 07:31:30;;;;;;;;;;;8.90;82.10;;;;;;5042581;28;19913;-82
2022/04/16 07:33:55;;;;;;;;;;;9.00;81.20;;;;;;5047003;28;20010;-82
2022/04/16 07:36:21;;;;;;;;;;;9.10;82.40;;;;;;5050848;28;19913;-81
2022/04/16 07:38:46;;;;;;;;;;;9.10;81.40;;;;;;5043160;28;19932;-82
2022/04/16 07:41:12;;;;;;;;;;;9.20;82.20;;;;;;5044663;28;19913;-80
2022/04/16 07:43:37;;;;;;;;;;;9.30;81.80;;;;;;5046529;28;19921;-79
2022/04/16 07:46:02;;;;;;;;;;;9.30;81.70;;;;;;5049002;28;19935;-81
2022/04/16 07:48:28;;;;;;;;;;;9.40;80.40;;;;;;5051492;28;19916;-80
2022/04/16 07:50:53;;;;;;;;;;;9.50;80.10;;;;;;5051133;28;20047;-80
2022/04/16 07:53:19;;;;;;;;;;;9.40;79.50;;;;;;5042829;28;19960;-79
2022/04/16 07:55:45;;;;;;;;;;;9.30;79.10;;;;;;5050540;28;20000;-80
2022/04/16 07:58:10;;;;;;;;;;;9.40;80.50;;;;;;5049435;28;19924;-80
2022/04/16 08:00:36;;;;;;;;;;;9.40;79.10;;;;;;5050119;28;19912;-79
2022/04/16 08:03:01;;;;;;;;;;;9.50;78.70;;;;;;5047251;28;20019;-81
2022/04/16 08:05:27;;;;;;;;;;;9.60;79.70;;;;;;5050139;28;20307;-79
2022/04/16 08:07:52;;;;;;;;;;;9.70;78.40;;;;;;5049353;28;20402;-78
2022/04/16 08:10:18;;;;;;;;;;;9.70;78.60;;;;;;5048589;28;19920;-79
2022/04/16 08:12:43;;;;;;;;;;;9.80;78.10;;;;;;5039288;28;19917;-79
2022/04/16 08:15:10;;;;;;;;;;;9.90;78.50;;;;;;5050698;28;20027;-79
2022/04/16 08:17:37;;;;;;;;;;;10.00;79.30;;;;;;5044900;28;19951;-79
2022/04/16 08:20:04;;;;;;;;;;;10.10;76.10;;;;;;5047364;28;20346;-79
2022/04/16 08:22:32;;;;;;;;;;;10.10;76.70;;;;;;5044423;28;19913;-81
2022/04/16 08:27:42;;;;;;;;;;;10.10;76.80;;;;;;5048879;28;20003;-78
2022/04/16 08:30:10;;;;;;;;;;;10.30;76.00;;;;;;5048904;28;19996;-78
2022/04/16 08:32:36;;;;;;;;;;;10.10;74.70;;;;;;5047836;28;19991;-78
2022/04/16 08:35:01;;;;;;;;;;;10.10;75.40;;;;;;5048712;28;20311;-78
2022/04/16 08:37:27;;;;;;;;;;;10.00;74.10;;;;;;5048950;28;20333;-77
2022/04/16 08:39:52;;;;;;;;;;;10.10;76.10;;;;;;5047913;28;19928;-78
2022/04/16 08:42:18;;;;;;;;;;;10.10;74.90;;;;;;5048381;28;19967;-78
2022/04/16 08:44:43;;;;;;;;;;;10.10;75.60;;;;;;5047582;28;19917;-78
2022/04/16 08:47:09;;;;;;;;;;;10.50;73.70;;;;;;5056289;28;19943;-77
2022/04/16 08:49:34;;;;;;;;;;;10.60;71.70;;;;;;5054536;28;19970;-78
2022/04/16 08:52:02;;;;;;;;;;;10.50;73.70;;;;;;5049307;28;19966;-78
2022/04/16 08:54:27;;;;;;;;;;;10.60;72.70;;;;;;5046032;28;19912;-78
2022/04/16 08:56:53;;;;;;;;;;;10.80;73.00;;;;;;5048216;28;20290;-78
2022/04/16 08:59:18;;;;;;;;;;;10.90;71.10;;;;;;5030663;28;20027;-78
2022/04/16 09:01:44;;;;;;;;;;;10.70;70.80;;;;;;4983833;28;20318;-76
2022/04/16 09:04:20;;;;;;;;;;;10.40;71.40;;;;;;5012062;28;20020;-78
2022/04/16 09:07:02;;;;;;;;;;;10.40;72.40;;;;;;5004123;28;20209;-77
2022/04/16 09:09:28;;;;;;;;;;;10.60;73.00;;;;;;5049533;28;19992;-78
2022/04/16 09:11:54;;;;;;;;;;;11.00;72.60;;;;;;5066715;28;20001;-78
2022/04/16 09:14:19;;;;;;;;;;;11.30;72.10;;;;;;5059126;28;19923;-78
2022/04/16 09:16:45;;;;;;;;;;;11.60;71.20;;;;;;5058833;28;19962;-78
2022/04/16 09:19:16;;;;;;;;;;;11.50;69.90;;;;;;5049765;28;19917;-77
2022/04/16 09:21:43;;;;;;;;;;;11.60;69.30;;;;;;5047679;28;19914;-78
2022/04/16 09:24:09;;;;;;;;;;;11.50;68.50;;;;;;5056477;28;19982;-79
2022/04/16 09:26:35;;;;;;;;;;;11.50;66.60;;;;;;5044970;28;20368;-78
2022/04/16 09:29:08;;;;;;;;;;;11.50;65.60;;;;;;5033465;28;20047;-77
2022/04/16 09:31:34;;;;;;;;;;;11.50;66.80;;;;;;5051764;28;19917;-78
2022/04/16 09:34:00;;;;;;;;;;;11.50;67.80;;;;;;5047006;28;19975;-78
2022/04/16 09:36:26;;;;;;;;;;;11.80;65.70;;;;;;5049983;28;20383;-78
2022/04/16 09:39:01;;;;;;;;;;;11.80;66.40;;;;;;5048533;28;20382;-78
2022/04/16 09:41:33;;;;;;;;;;;11.60;64.30;;;;;;5043954;28;19917;-78
2022/04/16 09:44:00;;;;;;;;;;;11.30;65.10;;;;;;5058976;28;20027;-77
2022/04/16 09:46:29;;;;;;;;;;;11.20;65.80;;;;;;5055573;28;19932;-77
2022/04/16 09:49:01;;;;;;;;;;;11.20;65.00;;;;;;5051587;28;19916;-79
2022/04/16 09:51:27;;;;;;;;;;;11.40;61.70;;;;;;5047086;28;19924;-79
2022/04/16 09:53:52;;;;;;;;;;;11.30;62.50;;;;;;5047630;28;20380;-80
2022/04/16 09:56:19;;;;;;;;;;;11.40;65.40;;;;;;5052277;28;19928;-79
2022/04/16 09:58:50;;;;;;;;;;;11.40;65.80;;;;;;5051033;28;19916;-82
2022/04/16 10:01:16;;;;;;;;;;;11.50;63.50;;;;;;5049891;28;19916;-77
2022/04/16 10:03:44;;;;;;;;;;;11.30;65.40;;;;;;5054676;28;19921;-80
2022/04/16 10:06:09;;;;;;;;;;;11.50;64.50;;;;;;5061226;28;19936;-79
2022/04/16 10:08:35;;;;;;;;;;;11.50;66.60;;;;;;5052051;28;19917;-78
2022/04/16 10:11:03;;;;;;;;;;;11.50;62.10;;;;;;5049854;28;19924;-76
2022/04/16 10:13:31;;;;;;;;;;;11.50;64.50;;;;;;5050222;28;19920;-78
2022/04/16 10:15:57;;;;;;;;;;;11.60;60.70;;;;;;5051830;28;20008;-78
2022/04/16 10:18:23;;;;;;;;;;;11.60;64.30;;;;;;5049072;28;19924;-78
2022/04/16 10:20:49;;;;;;;;;;;11.50;63.40;;;;;;5045350;28;19914;-78
2022/04/16 10:23:24;;;;;;;;;;;11.50;63.40;;;;;;5038310;28;19916;-77
2022/04/16 10:25:49;;;;;;;;;;;11.50;61.30;;;;;;5045766;28;19912;-76
2022/04/16 10:28:23;;;;;;;;;;;11.60;66.60;;;;;;5047605;28;19927;-76
2022/04/16 10:30:53;;;;;;;;;;;11.60;61.80;;;;;;5044226;28;19924;-76
2022/04/16 10:33:19;;;;;;;;;;;11.60;62.90;;;;;;5045365;28;20342;-76
2022/04/16 10:35:48;;;;;;;;;;;11.60;60.70;;;;;;5050402;28;19909;-83
2022/04/16 10:38:34;;;;;;;;;;;11.70;61.70;;;;;;5047106;28;19939;-79
2022/04/16 10:41:09;;;;;;;;;;;11.80;58.70;;;;;;5053502;28;19943;-81
2022/04/16 10:43:35;;;;;;;;;;;11.80;57.60;;;;;;5049131;28;19974;-82
2022/04/16 10:46:01;;;;;;;;;;;11.80;57.90;;;;;;5051536;28;20387;-80
2022/04/16 10:48:27;;;;;;;;;;;11.80;59.80;;;;;;5052164;28;19917;-81
2022/04/16 10:50:55;;;;;;;;;;;11.90;56.30;;;;;;5048129;28;19927;-81
2022/04/16 10:53:32;;;;;;;;;;;11.90;59.50;;;;;;5055005;28;20017;-81
2022/04/16 10:56:13;;;;;;;;;;;12.10;60.20;;;;;;5052273;28;19996;-81
2022/04/16 10:58:43;;;;;;;;;;;12.30;58.10;;;;;;5040472;28;19912;-83
2022/04/16 11:01:12;;;;;;;;;;;12.10;55.10;;;;;;5048339;28;20415;-84
2022/04/16 11:03:48;;;;;;;;;;;12.20;58.30;;;;;;5043402;28;19932;-87
2022/04/16 11:06:15;;;;;;;;;;;12.10;55.70;;;;;;5047729;28;19971;-80
2022/04/16 11:08:41;;;;;;;;;;;12.20;55.80;;;;;;5048488;28;19913;-81
2022/04/16 11:11:10;;;;;;;;;;;12.20;55.10;;;;;;5049169;28;19959;-82
2022/04/16 11:13:39;;;;;;;;;;;12.10;57.30;;;;;;5052119;28;19978;-81
2022/04/16 11:16:05;;;;;;;;;;;12.10;57.00;;;;;;5049592;28;19913;-83
2022/04/16 11:18:43;;;;;;;;;;;12.30;52.60;;;;;;5057566;28;19927;-83
2022/04/16 11:21:13;;;;;;;;;;;12.30;52.50;;;;;;5057103;28;19920;-84
2022/04/16 11:23:39;;;;;;;;;;;12.30;51.60;;;;;;5051773;28;19920;-84
2022/04/16 11:34:23;;;;;;;;;;;12.60;51.80;;;;;;5050937;28;19987;-82
2022/04/16 11:36:50;;;;;;;;;;;12.80;52.20;;;;;;5045689;28;19920;-82
2022/04/16 11:39:19;;;;;;;;;;;12.80;51.80;;;;;;5046020;28;20011;-80
2022/04/16 11:41:46;;;;;;;;;;;12.80;52.20;;;;;;5053349;28;20355;-82
2022/04/16 11:44:11;;;;;;;;;;;12.80;50.30;;;;;;5055282;28;19915;-81
2022/04/16 11:46:41;;;;;;;;;;;12.70;49.40;;;;;;5055941;28;19917;-82
2022/04/16 11:49:07;;;;;;;;;;;12.90;50.20;;;;;;5056031;28;19913;-82
2022/04/16 11:51:36;;;;;;;;;;;12.90;46.60;;;;;;5052491;28;19939;-81
2022/04/16 11:54:02;;;;;;;;;;;12.80;50.30;;;;;;5063591;28;19947;-81
2022/04/16 11:56:27;;;;;;;;;;;12.90;51.40;;;;;;5059094;28;19916;-82
2022/04/16 11:58:53;;;;;;;;;;;13.10;50.20;;;;;;5057323;28;20410;-81
2022/04/16 12:01:22;;;;;;;;;;;13.10;51.90;;;;;;5053062;28;20306;-81
2022/04/16 12:03:48;;;;;;;;;;;13.00;47.50;;;;;;5067251;28;19924;-82
2022/04/16 12:06:16;;;;;;;;;;;12.90;47.70;;;;;;5058707;28;20318;-82
2022/04/16 12:08:42;;;;;;;;;;;13.10;47.60;;;;;;5057394;28;19913;-81
2022/04/16 12:11:08;;;;;;;;;;;13.20;49.30;;;;;;5057333;28;19957;-79
2022/04/16 12:13:42;;;;;;;;;;;13.20;46.80;;;;;;5051780;28;19996;-80
2022/04/16 12:16:09;;;;;;;;;;;13.30;48.50;;;;;;5049124;28;20743;-80
2022/04/16 12:18:42;;;;;;;;;;;13.20;47.20;;;;;;5052554;28;19925;-83
2022/04/16 12:21:08;;;;;;;;;;;13.10;45.90;;;;;;5050664;28;19920;-80
2022/04/16 12:23:34;;;;;;;;;;;12.90;44.50;;;;;;5053580;28;19924;-81
2022/04/16 12:26:05;;;;;;;;;;;13.10;45.80;;;;;;5053233;28;19946;-81
2022/04/16 12:28:35;;;;;;;;;;;13.30;46.80;;;;;;5048190;28;19913;-81
2022/04/16 12:31:00;;;;;;;;;;;13.10;43.90;;;;;;5053333;28;19984;-81
2022/04/16 12:33:26;;;;;;;;;;;13.20;44.70;;;;;;5059782;28;19948;-79
2022/04/16 12:35:55;;;;;;;;;;;13.30;45.30;;;;;;5051139;28;19917;-80
2022/04/16 12:38:21;;;;;;;;;;;13.20;46.50;;;;;;5050469;28;20019;-79
2022/04/16 12:40:46;;;;;;;;;;;13.30;43.60;;;;;;5049200;28;19975;-82
2022/04/16 12:43:12;;;;;;;;;;;13.30;44.70;;;;;;5047161;28;20398;-82
2022/04/16 12:45:37;;;;;;;;;;;13.30;42.70;;;;;;5055064;28;20043;-81
2022/04/16 12:48:03;;;;;;;;;;;13.30;43.60;;;;;;5053855;28;20050;-82
2022/04/16 12:50:33;;;;;;;;;;;13.20;43.20;;;;;;5050019;28;19917;-81
2022/04/16 12:52:59;;;;;;;;;;;13.30;41.30;;;;;;5041751;28;19913;-82
2022/04/16 12:55:25;;;;;;;;;;;13.20;42.80;;;;;;5050320;28;20751;-81
2022/04/16 12:57:50;;;;;;;;;;;13.30;42.10;;;;;;5051879;28;20017;-81
2022/04/16 13:00:16;;;;;;;;;;;13.30;42.10;;;;;;5061654;28;19924;-81
2022/04/16 13:02:44;;;;;;;;;;;13.30;44.30;;;;;;5050056;28;19916;-80
2022/04/16 13:05:10;;;;;;;;;;;13.50;44.00;;;;;;5052769;28;19935;-78
2022/04/16 13:07:35;;;;;;;;;;;13.60;42.70;;;;;;5051712;28;20584;-79
2022/04/16 13:10:01;;;;;;;;;;;13.80;43.70;;;;;;5051146;28;19960;-80
2022/04/16 13:12:28;;;;;;;;;;;13.60;40.20;;;;;;5052328;28;20032;-80
2022/04/16 13:14:53;;;;;;;;;;;13.60;39.40;;;;;;5053670;28;19916;-81
2022/04/16 13:17:19;;;;;;;;;;;13.60;42.20;;;;;;5052964;28;19917;-80
2022/04/16 13:19:45;;;;;;;;;;;13.70;43.40;;;;;;5051124;28;19913;-81
2022/04/16 13:22:10;;;;;;;;;;;13.90;40.80;;;;;;5050141;28;19920;-81
2022/04/16 13:24:36;;;;;;;;;;;13.80;40.50;;;;;;5053432;28;20342;-82
2022/04/16 13:27:03;;;;;;;;;;;13.80;42.30;;;;;;5048007;28;20405;-81
2022/04/16 13:29:29;;;;;;;;;;;13.70;41.30;;;;;;5049070;28;20034;-80
2022/04/16 13:31:56;;;;;;;;;;;13.80;38.40;;;;;;5058889;28;19925;-82
2022/04/16 13:34:21;;;;;;;;;;;14.00;36.30;;;;;;5056015;28;20264;-81
2022/04/16 13:36:47;;;;;;;;;;;14.00;39.20;;;;;;5055197;28;19917;-81
2022/04/16 13:41:37;;;;;;;;;;;14.00;40.70;;;;;;5054632;28;19913;-81
2022/04/16 13:41:58;;;;;;;;;;;13.80;41.30;;;;;;5053011;28;19917;-82
2022/04/16 13:44:23;;;;;;;;;;;13.80;38.60;;;;;;5045151;28;19917;-81
2022/04/16 13:46:49;;;;;;;;;;;13.80;41.30;;;;;;5054682;28;19913;-81
2022/04/16 13:49:14;;;;;;;;;;;13.90;42.00;;;;;;5050228;28;19913;-82
2022/04/16 13:51:40;;;;;;;;;;;14.00;39.40;;;;;;5049816;28;19958;-81
2022/04/16 13:54:06;;;;;;;;;;;14.10;38.10;;;;;;5060604;28;19913;-82
2022/04/16 13:56:32;;;;;;;;;;;14.10;36.60;;;;;;5052331;28;19959;-81
2022/04/16 13:58:57;;;;;;;;;;;14.00;37.90;;;;;;5051253;28;19925;-82
2022/04/16 14:01:23;;;;;;;;;;;14.00;39.30;;;;;;5055863;28;19924;-80
2022/04/16 14:03:49;;;;;;;;;;;14.00;39.40;;;;;;5055130;28;19934;-78
2022/04/16 14:06:15;;;;;;;;;;;14.10;38.80;;;;;;5053576;28;20429;-80
2022/04/16 14:08:41;;;;;;;;;;;14.00;35.90;;;;;;5052311;28;19913;-82
2022/04/16 14:11:07;;;;;;;;;;;14.00;38.90;;;;;;5050887;28;19912;-80
2022/04/16 14:13:33;;;;;;;;;;;14.10;37.70;;;;;;5051047;28;20366;-80
2022/04/16 14:15:59;;;;;;;;;;;14.10;36.80;;;;;;5050013;28;19917;-80
2022/04/16 14:18:26;;;;;;;;;;;14.00;35.70;;;;;;5049900;28;19917;-80
2022/04/16 14:20:51;;;;;;;;;;;14.10;36.20;;;;;;5048117;28;20011;-79
2022/04/16 14:23:17;;;;;;;;;;;14.10;37.00;;;;;;5050949;28;20009;-81
2022/04/16 14:25:43;;;;;;;;;;;14.20;35.70;;;;;;5050746;28;19928;-80
2022/04/16 14:28:09;;;;;;;;;;;14.10;34.70;;;;;;5049613;28;19923;-79
2022/04/16 14:30:38;;;;;;;;;;;14.10;34.60;;;;;;5059844;28;19928;-79
2022/04/16 14:33:04;;;;;;;;;;;14.20;34.40;;;;;;5050270;28;20004;-79
2022/04/16 14:35:30;;;;;;;;;;;14.20;36.90;;;;;;5050862;28;19986;-79
2022/04/16 14:37:55;;;;;;;;;;;14.10;34.90;;;;;;5050197;28;19920;-79
2022/04/16 14:40:20;;;;;;;;;;;14.10;37.70;;;;;;5051738;28;19912;-79
2022/04/16 14:42:48;;;;;;;;;;;14.20;38.50;;;;;;5045248;28;19912;-79